ΕΜΥ, Εθνική Μετεωρολογική Υπηρεσία - Δελτία Καιρού, Προγνώσεις

ΑΕΡΟΝΑΥΤΙΛΙΑ

GREEK AIRPORTS CODES

TAF LGMG 050700Z 0509/0518 30010KT 9999 FEW018 SCT025=

EUROPEAN AIRPORTS CODES

LFPO 060000Z 32011KT 9999 SCT016 BKN040 BKN053 05/04 Q1011NOSIG=